createdAt,value
2019-02-24T00:01:35.204Z,3.40
2019-02-24T00:04:03.949Z,4.65
2019-02-24T00:06:32.682Z,3.77
2019-02-24T00:09:01.524Z,5.17
2019-02-24T00:11:30.260Z,4.20
2019-02-24T00:13:59.089Z,4.10
2019-02-24T00:16:27.822Z,3.92
2019-02-24T00:18:56.592Z,3.87
2019-02-24T00:21:25.443Z,3.90
2019-02-24T00:23:54.213Z,4.83
2019-02-24T00:26:23.002Z,4.62
2019-02-24T00:28:51.765Z,4.60
2019-02-24T00:31:20.569Z,4.35
2019-02-24T00:33:49.301Z,3.80
2019-02-24T00:36:18.086Z,5.30
2019-02-24T00:38:46.837Z,3.83
2019-02-24T00:41:15.604Z,4.87
2019-02-24T00:43:44.337Z,4.45
2019-02-24T00:46:13.170Z,4.87
2019-02-24T00:48:41.895Z,4.53
2019-02-24T00:51:10.645Z,4.25
2019-02-24T00:53:39.381Z,4.20
2019-02-24T00:56:08.213Z,3.92
2019-02-24T00:58:36.958Z,4.50
2019-02-24T01:01:05.758Z,5.17
2019-02-24T01:03:34.489Z,4.47
2019-02-24T01:06:03.367Z,5.08
2019-02-24T01:08:32.063Z,4.60
2019-02-24T01:11:00.825Z,5.62
2019-02-24T01:13:29.692Z,4.25
2019-02-24T01:15:58.496Z,4.37
2019-02-24T01:18:27.261Z,4.12
2019-02-24T01:20:56.010Z,4.72
2019-02-24T01:23:24.775Z,5.40
2019-02-24T01:25:53.600Z,4.67
2019-02-24T01:28:25.224Z,3.72
2019-02-24T01:30:52.740Z,3.87
2019-02-24T01:33:21.515Z,4.50
2019-02-24T01:35:50.312Z,5.20
2019-02-24T01:38:19.089Z,4.17
2019-02-24T01:40:47.869Z,3.95
2019-02-24T01:43:16.634Z,4.15
2019-02-24T01:45:45.373Z,4.08
2019-02-24T01:48:14.161Z,4.80
2019-02-24T01:50:42.920Z,4.40
2019-02-24T01:53:11.693Z,4.10
2019-02-24T01:55:40.456Z,3.95
2019-02-24T01:58:09.220Z,4.72
2019-02-24T02:00:38.025Z,4.37
2019-02-24T02:03:08.497Z,5.20
2019-02-24T02:05:37.217Z,4.40
2019-02-24T02:08:06.220Z,4.50
2019-02-24T02:10:35.294Z,4.50
2019-02-24T02:13:04.024Z,4.53
2019-02-24T02:15:32.795Z,4.62
2019-02-24T02:18:03.954Z,4.37
2019-02-24T02:20:32.902Z,4.37
2019-02-24T02:23:01.704Z,4.50
2019-02-24T02:25:30.470Z,4.62
2019-02-24T02:27:59.210Z,4.72
2019-02-24T02:30:27.977Z,4.05
2019-02-24T02:32:56.814Z,4.75
2019-02-24T02:35:25.634Z,4.75
2019-02-24T02:37:54.365Z,4.85
2019-02-24T02:40:23.173Z,3.92
2019-02-24T02:42:51.930Z,4.37
2019-02-24T02:45:20.670Z,4.50
2019-02-24T02:47:49.441Z,4.45
2019-02-24T02:50:18.253Z,4.58
2019-02-24T02:52:47.010Z,4.08
2019-02-24T02:55:15.793Z,4.45
2019-02-24T02:57:44.566Z,4.42
2019-02-24T03:00:30.858Z,4.75
2019-02-24T03:02:59.620Z,6.60
2019-02-24T03:05:28.533Z,4.67
2019-02-24T03:08:04.640Z,4.00
2019-02-24T03:10:33.376Z,5.05
2019-02-24T03:13:02.144Z,5.78
2019-02-24T03:15:30.977Z,5.33
2019-02-24T03:17:59.794Z,4.65
2019-02-24T03:20:28.593Z,4.33
2019-02-24T03:22:57.353Z,5.00
2019-02-24T03:25:26.119Z,4.17
2019-02-24T03:27:54.876Z,4.78
2019-02-24T03:30:23.634Z,5.12
2019-02-24T03:32:52.358Z,5.27
2019-02-24T03:35:21.222Z,6.35
2019-02-24T03:37:49.960Z,4.50
2019-02-24T03:40:18.722Z,4.78
2019-02-24T03:42:47.453Z,6.08
2019-02-24T03:45:16.284Z,4.83
2019-02-24T03:47:45.125Z,5.90
2019-02-24T03:50:13.983Z,4.97
2019-02-24T03:52:42.785Z,4.27
2019-02-24T03:55:11.549Z,5.08
2019-02-24T03:57:40.383Z,4.87
2019-02-24T04:00:09.933Z,4.92
2019-02-24T04:02:38.681Z,4.70
2019-02-24T04:05:07.456Z,4.65
2019-02-24T04:07:36.217Z,4.25
2019-02-24T04:10:06.735Z,5.62
2019-02-24T04:12:35.526Z,4.75
2019-02-24T04:15:05.366Z,4.80
2019-02-24T04:17:34.197Z,4.00
2019-02-24T04:20:03.109Z,4.85
2019-02-24T04:22:31.948Z,4.87
2019-02-24T04:25:00.689Z,6.22
2019-02-24T04:27:29.453Z,5.35
2019-02-24T04:29:58.263Z,5.37
2019-02-24T04:32:27.064Z,5.05
2019-02-24T04:34:55.793Z,5.70
2019-02-24T04:37:24.556Z,4.53
2019-02-24T04:39:53.361Z,5.00
2019-02-24T04:42:22.134Z,5.00
2019-02-24T04:44:50.983Z,4.55
2019-02-24T04:47:19.717Z,4.90
2019-02-24T04:49:48.488Z,4.83
2019-02-24T04:52:17.282Z,5.00
2019-02-24T04:54:46.117Z,3.87
2019-02-24T04:57:14.869Z,4.05
2019-02-24T04:59:43.619Z,6.03
2019-02-24T05:02:12.420Z,5.40
2019-02-24T05:04:41.253Z,5.95
2019-02-24T05:07:09.997Z,5.37
2019-02-24T05:09:38.832Z,3.72
2019-02-24T05:12:07.594Z,4.35
2019-02-24T05:14:36.361Z,4.35
2019-02-24T05:17:05.102Z,4.53
2019-02-24T05:19:34.848Z,4.65
2019-02-24T05:22:03.506Z,5.37
2019-02-24T05:24:32.291Z,4.65
2019-02-24T05:27:01.073Z,5.35
2019-02-24T05:29:29.805Z,5.80
2019-02-24T05:31:58.569Z,4.58
2019-02-24T05:34:27.375Z,5.10
2019-02-24T05:36:56.136Z,4.80
2019-02-24T05:39:24.876Z,4.30
2019-02-24T05:41:53.718Z,5.00
2019-02-24T05:44:22.524Z,4.90
2019-02-24T05:46:51.281Z,4.47
2019-02-24T05:49:20.013Z,5.25
2019-02-24T05:51:48.778Z,4.80
2019-02-24T05:54:17.513Z,5.50
2019-02-24T05:56:46.274Z,4.80
2019-02-24T05:59:15.012Z,5.00
2019-02-24T06:01:43.849Z,5.37
2019-02-24T06:04:12.665Z,5.08
2019-02-24T06:06:41.443Z,5.25
2019-02-24T06:09:10.270Z,4.87
2019-02-24T06:11:39.118Z,5.22
2019-02-24T06:14:07.890Z,5.10
2019-02-24T06:16:36.623Z,4.80
2019-02-24T06:19:05.393Z,5.72
2019-02-24T06:21:34.343Z,5.87
2019-02-24T06:24:03.107Z,5.20
2019-02-24T06:26:31.845Z,4.90
2019-02-24T06:29:00.668Z,5.22
2019-02-24T06:31:29.546Z,5.77
2019-02-24T06:33:58.310Z,5.03
2019-02-24T06:36:27.046Z,5.70
2019-02-24T06:38:55.920Z,5.90
2019-02-24T06:41:24.709Z,5.97
2019-02-24T06:43:53.468Z,4.80
2019-02-24T06:46:22.523Z,5.60
2019-02-24T06:48:51.285Z,5.37
2019-02-24T06:51:20.116Z,5.87
2019-02-24T06:53:48.857Z,5.93
2019-02-24T06:56:17.622Z,5.80
2019-02-24T06:58:46.486Z,5.60
2019-02-24T07:01:15.344Z,5.72
2019-02-24T07:03:44.147Z,4.20
2019-02-24T07:06:13.042Z,4.53
2019-02-24T07:08:41.777Z,6.40
2019-02-24T07:11:10.573Z,5.17
2019-02-24T07:13:39.333Z,4.90
2019-02-24T07:16:08.095Z,4.78
2019-02-24T07:18:36.998Z,4.65
2019-02-24T07:21:05.822Z,6.10
2019-02-24T07:23:34.696Z,5.90
2019-02-24T07:26:05.077Z,5.83
2019-02-24T07:28:34.592Z,4.30
2019-02-24T07:31:04.861Z,4.95
2019-02-24T07:33:34.966Z,5.22
2019-02-24T07:36:03.850Z,4.42
2019-02-24T07:38:32.677Z,5.22
2019-02-24T07:41:01.420Z,4.65
2019-02-24T07:43:30.176Z,4.70
2019-02-24T07:45:58.905Z,7.45
2019-02-24T07:48:27.664Z,5.60
2019-02-24T07:50:56.473Z,4.33
2019-02-24T07:53:25.294Z,5.42
2019-02-24T07:55:54.022Z,6.70
2019-02-24T07:58:22.821Z,5.97
2019-02-24T08:00:51.617Z,5.70
2019-02-24T08:03:20.423Z,6.00
2019-02-24T08:05:49.185Z,5.47
2019-02-24T08:08:17.917Z,4.80
2019-02-24T08:10:46.678Z,5.65
2019-02-24T08:13:15.456Z,5.72
2019-02-24T08:15:44.273Z,4.83
2019-02-24T08:18:13.021Z,6.05
2019-02-24T08:20:41.781Z,5.85
2019-02-24T08:23:11.018Z,5.47
2019-02-24T08:25:39.982Z,5.05
2019-02-24T08:28:08.829Z,6.47
2019-02-24T08:30:41.566Z,6.72
2019-02-24T08:33:07.965Z,6.92
2019-02-24T08:35:38.627Z,6.83
2019-02-24T08:38:09.395Z,6.83
2019-02-24T08:40:41.268Z,6.22
2019-02-24T08:43:10.030Z,5.62
2019-02-24T08:45:38.831Z,5.05
2019-02-24T08:48:07.586Z,6.05
2019-02-24T08:50:36.557Z,6.25
2019-02-24T08:53:05.289Z,5.10
2019-02-24T08:55:34.273Z,5.58
2019-02-24T08:58:06.410Z,5.57
2019-02-24T09:00:36.699Z,6.22
2019-02-24T09:03:05.641Z,6.92
2019-02-24T09:05:35.857Z,6.67
2019-02-24T09:08:09.468Z,6.12
2019-02-24T09:10:40.758Z,6.47
2019-02-24T09:13:09.632Z,7.47
2019-02-24T09:15:38.436Z,8.23
2019-02-24T09:18:07.465Z,5.92
2019-02-24T09:20:40.599Z,6.57
2019-02-24T09:23:09.453Z,5.78
2019-02-24T09:25:38.281Z,5.95
2019-02-24T09:28:07.100Z,6.47
2019-02-24T09:30:35.941Z,7.40
2019-02-24T09:33:04.817Z,7.03
2019-02-24T09:35:33.657Z,5.90
2019-02-24T09:38:02.381Z,7.40
2019-02-24T09:40:32.342Z,6.25
2019-02-24T09:43:01.125Z,7.50
2019-02-24T09:45:29.882Z,7.08
2019-02-24T09:47:58.668Z,6.50
2019-02-24T09:50:27.492Z,6.28
2019-02-24T09:52:56.231Z,6.20
2019-02-24T09:55:24.981Z,7.80
2019-02-24T09:57:53.971Z,6.42
2019-02-24T10:00:22.806Z,5.87
2019-02-24T10:02:51.533Z,6.15
2019-02-24T10:05:20.274Z,7.12
2019-02-24T10:07:49.042Z,6.20
2019-02-24T10:10:18.009Z,6.95
2019-02-24T10:12:46.782Z,6.40
2019-02-24T10:15:15.727Z,6.70
2019-02-24T10:17:44.567Z,5.67
2019-02-24T10:20:13.739Z,6.17
2019-02-24T10:22:42.554Z,6.75
2019-02-24T10:25:11.354Z,6.70
2019-02-24T10:27:40.137Z,6.67
2019-02-24T10:30:13.869Z,5.87
2019-02-24T10:32:42.709Z,5.80
2019-02-24T10:35:11.445Z,6.77
2019-02-24T10:37:40.401Z,4.95
2019-02-24T10:40:12.606Z,5.28
2019-02-24T10:42:41.309Z,5.12
2019-02-24T10:45:12.550Z,5.95
2019-02-24T10:47:43.177Z,7.30
2019-02-24T10:50:13.872Z,5.67
2019-02-24T10:52:42.610Z,5.67
2019-02-24T10:55:11.377Z,7.85
2019-02-24T10:57:40.110Z,6.35
2019-02-24T11:00:14.446Z,5.20
2019-02-24T11:02:43.182Z,11.73
2019-02-24T11:05:12.162Z,7.30
2019-02-24T11:07:40.913Z,6.03
2019-02-24T11:10:10.324Z,5.62
2019-02-24T11:12:39.044Z,5.70
2019-02-24T11:15:12.086Z,6.25
2019-02-24T11:17:40.819Z,6.47
2019-02-24T11:20:12.094Z,6.12
2019-02-24T11:22:40.977Z,6.65
2019-02-24T11:25:11.137Z,5.03
2019-02-24T11:27:39.877Z,6.65
2019-02-24T11:30:10.758Z,6.00
2019-02-24T11:32:39.523Z,5.72
2019-02-24T11:35:10.333Z,5.40
2019-02-24T11:37:39.088Z,6.42
2019-02-24T11:40:13.369Z,5.45
2019-02-24T11:42:42.273Z,6.17
2019-02-24T11:45:11.027Z,6.40
2019-02-24T11:47:40.809Z,5.10
2019-02-24T11:50:11.053Z,6.25
2019-02-24T11:52:39.818Z,5.78
2019-02-24T11:55:12.292Z,6.70
2019-02-24T11:57:41.050Z,5.78
2019-02-24T12:00:16.291Z,6.10
2019-02-24T12:02:45.172Z,6.08
2019-02-24T12:05:13.901Z,5.28
2019-02-24T12:07:42.655Z,5.67
2019-02-24T12:10:12.482Z,6.90
2019-02-24T12:12:41.329Z,6.35
2019-02-24T12:15:11.661Z,5.70
2019-02-24T12:17:40.427Z,5.87
2019-02-24T12:20:10.929Z,7.92
2019-02-24T12:22:39.697Z,9.63
2019-02-24T12:25:10.112Z,6.78
2019-02-24T12:27:38.849Z,6.85
2019-02-24T12:30:15.570Z,6.35
2019-02-24T12:32:44.413Z,5.40
2019-02-24T12:35:13.341Z,6.47
2019-02-24T12:37:42.069Z,6.05
2019-02-24T12:40:12.733Z,6.10
2019-02-24T12:42:41.465Z,7.97
2019-02-24T12:45:11.623Z,10.98
2019-02-24T12:47:40.421Z,6.92
2019-02-24T12:50:14.017Z,6.62
2019-02-24T12:52:42.747Z,6.25
2019-02-24T12:55:11.628Z,5.85
2019-02-24T12:57:41.097Z,7.35
2019-02-24T13:00:19.278Z,6.20
2019-02-24T13:02:48.080Z,5.50
2019-02-24T13:05:16.922Z,5.12
2019-02-24T13:07:45.657Z,5.85
2019-02-24T13:10:17.877Z,4.97
2019-02-24T13:12:46.604Z,5.25
2019-02-24T13:15:15.551Z,5.55
2019-02-24T13:17:55.850Z,5.03
2019-02-24T13:20:24.618Z,6.50
2019-02-24T13:22:53.398Z,4.90
2019-02-24T13:25:22.128Z,6.65
2019-02-24T13:27:50.957Z,5.87
2019-02-24T13:30:19.696Z,5.62
2019-02-24T13:32:48.452Z,5.47
2019-02-24T13:35:17.490Z,5.47
2019-02-24T13:37:46.317Z,6.08
2019-02-24T13:40:16.341Z,6.40
2019-02-24T13:42:45.102Z,4.65
2019-02-24T13:45:16.508Z,5.37
2019-02-24T13:47:45.265Z,4.40
2019-02-24T13:50:15.303Z,4.85
2019-02-24T13:52:44.166Z,6.95
2019-02-24T13:55:16.278Z,4.92
2019-02-24T13:57:45.032Z,4.97
2019-02-24T14:00:23.191Z,4.10
2019-02-24T14:02:51.964Z,5.25
2019-02-24T14:05:20.727Z,4.60
2019-02-24T14:07:49.549Z,5.08
2019-02-24T14:10:18.307Z,5.40
2019-02-24T14:12:47.050Z,5.97
2019-02-24T14:15:16.376Z,5.28
2019-02-24T14:17:45.113Z,5.53
2019-02-24T14:20:17.946Z,5.67
2019-02-24T14:22:46.678Z,4.45
2019-02-24T14:25:16.337Z,5.57
2019-02-24T14:27:45.190Z,5.50
2019-02-24T14:30:15.929Z,5.87
2019-02-24T14:32:44.695Z,5.10
2019-02-24T14:35:19.194Z,4.50
2019-02-24T14:37:48.017Z,4.87
2019-02-24T14:40:16.790Z,4.80
2019-02-24T14:42:45.549Z,5.22
2019-02-24T14:45:16.354Z,6.67
2019-02-24T14:47:45.118Z,7.70
2019-02-24T14:50:13.998Z,5.05
2019-02-24T14:52:42.766Z,5.75
2019-02-24T14:55:12.993Z,4.10
2019-02-24T14:57:41.757Z,5.45
2019-02-24T15:00:22.153Z,4.70
2019-02-24T15:02:50.916Z,5.35
2019-02-24T15:05:19.738Z,5.42
2019-02-24T15:07:48.501Z,5.45
2019-02-24T15:10:18.704Z,5.80
2019-02-24T15:12:47.570Z,5.65
2019-02-24T15:15:32.497Z,4.78
2019-02-24T15:17:56.745Z,5.17
2019-02-24T15:20:25.714Z,5.50
2019-02-24T15:22:54.482Z,4.60
2019-02-24T15:25:23.216Z,7.60
2019-02-24T15:27:52.068Z,5.05
2019-02-24T15:30:29.509Z,5.17
2019-02-24T15:32:58.513Z,5.25
2019-02-24T15:35:27.334Z,5.87
2019-02-24T15:37:56.193Z,6.72
2019-02-24T15:40:24.966Z,8.10
2019-02-24T15:42:53.801Z,6.55
2019-02-24T15:45:22.635Z,5.75
2019-02-24T15:47:51.357Z,6.17
2019-02-24T15:50:20.205Z,5.95
2019-02-24T15:52:48.946Z,5.30
2019-02-24T15:55:18.273Z,6.10
2019-02-24T15:57:47.047Z,6.12
2019-02-24T16:00:21.565Z,5.37
2019-02-24T16:02:50.371Z,5.67
2019-02-24T16:05:19.129Z,5.40
2019-02-24T16:07:48.058Z,5.53
2019-02-24T16:10:18.324Z,7.12
2019-02-24T16:12:47.122Z,6.42
2019-02-24T16:15:17.518Z,7.75
2019-02-24T16:17:46.249Z,4.97
2019-02-24T16:20:26.921Z,6.05
2019-02-24T16:22:56.660Z,6.70
2019-02-24T16:25:25.402Z,7.00
2019-02-24T16:27:54.536Z,7.35
2019-02-24T16:30:23.337Z,7.40
2019-02-24T16:32:52.166Z,6.35
2019-02-24T16:35:20.973Z,5.90
2019-02-24T16:37:49.761Z,6.30
2019-02-24T16:40:26.412Z,5.97
2019-02-24T16:42:55.227Z,6.17
2019-02-24T16:45:23.953Z,6.55
2019-02-24T16:47:52.713Z,5.15
2019-02-24T16:50:22.374Z,6.72
2019-02-24T16:52:51.213Z,6.17
2019-02-24T16:55:21.297Z,6.70
2019-02-24T16:57:50.026Z,6.35
2019-02-24T17:00:20.561Z,7.22
2019-02-24T17:02:49.593Z,6.30
2019-02-24T17:05:18.527Z,7.60
2019-02-24T17:07:49.173Z,8.78
2019-02-24T17:10:19.429Z,7.67
2019-02-24T17:12:48.262Z,7.03
2019-02-24T17:15:17.089Z,6.27
2019-02-24T17:17:45.937Z,8.83
2019-02-24T17:20:23.123Z,8.20
2019-02-24T17:22:51.855Z,8.00
2019-02-24T17:25:20.700Z,9.58
2019-02-24T17:27:49.438Z,10.98
2019-02-24T17:30:18.268Z,9.68
2019-02-24T17:32:46.997Z,10.88
2019-02-24T17:35:15.866Z,10.00
2019-02-24T17:37:44.605Z,8.30
2019-02-24T17:40:15.682Z,9.45
2019-02-24T17:44:50.233Z,6.92
2019-02-24T17:47:18.960Z,7.60
2019-02-24T17:49:47.931Z,7.65
2019-02-24T17:52:16.667Z,7.08
2019-02-24T17:54:45.432Z,7.70
2019-02-24T17:57:14.254Z,11.08
2019-02-24T17:59:42.991Z,8.68
2019-02-24T18:02:11.933Z,9.78
2019-02-24T18:04:40.769Z,7.65
2019-02-24T18:07:09.646Z,8.90
2019-02-24T18:09:38.385Z,7.67
2019-02-24T18:12:07.149Z,8.53
2019-02-24T18:14:38.560Z,7.50
2019-02-24T18:17:10.364Z,8.58
2019-02-24T18:19:39.107Z,7.58
2019-02-24T18:22:07.874Z,8.28
2019-02-24T18:24:37.969Z,8.95
2019-02-24T18:27:06.737Z,7.87
2019-02-24T18:29:36.999Z,8.00
2019-02-24T18:34:46.587Z,8.43
2019-02-24T18:37:15.564Z,7.90
2019-02-24T18:39:46.209Z,7.77
2019-02-24T18:42:14.834Z,8.50
2019-02-24T18:44:43.650Z,8.63
2019-02-24T18:47:12.478Z,7.33
2019-02-24T18:49:41.531Z,7.78
2019-02-24T18:52:10.456Z,6.83
2019-02-24T18:54:39.513Z,9.25
2019-02-24T18:57:08.713Z,5.83
2019-02-24T18:59:37.641Z,6.37
2019-02-24T19:02:06.592Z,6.10
2019-02-24T19:04:35.524Z,8.08
2019-02-24T19:07:04.184Z,6.87
2019-02-24T19:09:33.165Z,7.58
2019-02-24T19:12:01.910Z,7.30
2019-02-24T19:14:30.669Z,7.62
2019-02-24T19:16:59.402Z,8.03
2019-02-24T19:19:28.195Z,6.10
2019-02-24T19:21:57.001Z,7.85
2019-02-24T19:24:25.733Z,7.37
2019-02-24T19:26:54.585Z,7.08
2019-02-24T19:29:23.323Z,7.33
2019-02-24T19:31:52.154Z,10.03
2019-02-24T19:34:20.890Z,8.33
2019-02-24T19:36:51.508Z,7.08
2019-02-24T19:39:24.879Z,7.35
2019-02-24T19:41:53.666Z,7.92
2019-02-24T19:44:22.405Z,8.48
2019-02-24T19:46:54.866Z,7.80
2019-02-24T19:49:23.657Z,7.12
2019-02-24T19:51:52.942Z,9.33
2019-02-24T19:54:21.704Z,8.88
2019-02-24T19:56:50.740Z,7.80
2019-02-24T19:59:19.590Z,8.60
2019-02-24T20:01:48.498Z,7.83
2019-02-24T20:04:17.677Z,9.05
2019-02-24T20:06:46.411Z,7.80
2019-02-24T20:09:16.773Z,8.83
2019-02-24T20:11:45.706Z,7.28
2019-02-24T20:14:16.327Z,7.90
2019-02-24T20:16:46.963Z,8.60
2019-02-24T20:19:16.974Z,6.93
2019-02-24T20:21:45.967Z,7.60
2019-02-24T20:24:14.797Z,8.50
2019-02-24T20:26:43.713Z,8.20
2019-02-24T20:29:13.756Z,7.70
2019-02-24T20:31:42.664Z,7.80
2019-02-24T20:34:14.485Z,9.38
2019-02-24T20:36:44.697Z,9.50
2019-02-24T20:39:13.613Z,7.30
2019-02-24T20:41:42.485Z,8.93
2019-02-24T20:44:11.266Z,9.23
2019-02-24T20:46:40.055Z,8.93
2019-02-24T20:49:08.946Z,9.40
2019-02-24T20:51:37.710Z,7.53
2019-02-24T20:54:06.488Z,10.72
2019-02-24T20:56:35.254Z,8.58
2019-02-24T20:59:03.981Z,9.00
2019-02-24T21:01:32.741Z,8.48
2019-02-24T21:04:01.470Z,8.33
2019-02-24T21:06:30.249Z,10.55
2019-02-24T21:08:59.041Z,6.62
2019-02-24T21:11:27.781Z,10.53
2019-02-24T21:13:56.551Z,9.28
2019-02-24T21:16:26.020Z,8.53
2019-02-24T21:18:55.009Z,7.78
2019-02-24T21:21:23.738Z,8.98
2019-02-24T21:23:52.591Z,8.85
2019-02-24T21:26:22.042Z,9.23
2019-02-24T21:28:52.468Z,8.65
2019-02-24T21:31:22.061Z,9.45
2019-02-24T21:33:50.773Z,8.00
2019-02-24T21:36:19.510Z,9.55
2019-02-24T21:38:48.281Z,10.13
2019-02-24T21:41:17.009Z,8.18
2019-02-24T21:43:45.766Z,9.80
2019-02-24T21:46:14.531Z,7.95
2019-02-24T21:48:43.329Z,8.55
2019-02-24T21:51:12.101Z,8.90
2019-02-24T21:53:40.833Z,8.65
2019-02-24T21:56:09.626Z,7.45
2019-02-24T21:58:38.452Z,8.08
2019-02-24T22:01:07.278Z,8.18
2019-02-24T22:03:36.000Z,7.53
2019-02-24T22:06:04.852Z,7.95
2019-02-24T22:08:33.657Z,7.85
2019-02-24T22:11:02.519Z,7.05
2019-02-24T22:13:31.277Z,8.45
2019-02-24T22:16:00.036Z,7.78
2019-02-24T22:18:29.745Z,8.53
2019-02-24T22:20:58.444Z,8.93
2019-02-24T22:23:27.182Z,8.63
2019-02-24T22:25:55.940Z,8.53
2019-02-24T22:28:24.768Z,8.35
2019-02-24T22:30:53.500Z,8.23
2019-02-24T22:33:22.334Z,8.53
2019-02-24T22:35:51.080Z,8.40
2019-02-24T22:38:19.842Z,6.67
2019-02-24T22:40:54.337Z,8.40
2019-02-24T22:43:18.986Z,8.30
2019-02-24T22:45:47.718Z,8.90
2019-02-24T22:48:16.502Z,9.10
2019-02-24T22:50:45.346Z,7.87
2019-02-24T22:53:14.110Z,8.10
2019-02-24T22:55:44.610Z,8.20
2019-02-24T22:58:13.305Z,8.60
2019-02-24T23:00:52.385Z,8.50
2019-02-24T23:03:26.017Z,8.43
2019-02-24T23:05:54.877Z,10.37
2019-02-24T23:08:23.677Z,9.58
2019-02-24T23:10:52.437Z,7.80
2019-02-24T23:13:21.269Z,10.32
2019-02-24T23:15:50.036Z,10.72
2019-02-24T23:18:18.769Z,10.18
2019-02-24T23:20:47.629Z,10.85
2019-02-24T23:23:16.374Z,10.90
2019-02-24T23:25:45.135Z,9.65
2019-02-24T23:28:13.861Z,9.80
2019-02-24T23:30:42.691Z,10.68
2019-02-24T23:33:11.425Z,10.55
2019-02-24T23:35:40.177Z,9.78
2019-02-24T23:38:09.042Z,11.45
2019-02-24T23:40:37.804Z,13.93
2019-02-24T23:43:06.617Z,11.83
2019-02-24T23:45:35.361Z,14.25
2019-02-24T23:48:05.398Z,11.22
2019-02-24T23:50:34.209Z,11.78
2019-02-24T23:53:02.983Z,10.55
2019-02-24T23:55:31.726Z,10.43
2019-02-24T23:58:00.561Z,10.68
